Página principal
METAR-TAF:

METAR-TAF

Aeroportos :

Odessa, Ucrânia

Aeroporto Internacional de Odessa

latitude: 46-26N, longitude: 030-46E, altura: 42 m

Observação actual do tempo

O boletim foi feito há 31 minutos, às 13:00 UTC
Vento 12 kt de este, variando entre nordeste e es-sudeste
Temperatura 1°C
Humidade 64%
Pressão 1020 hPa
Visibilidade 10 km ou mais
sem nuvens abaixo de 1500 metros e sem cumulonimbus

METAR: UKOO 211300Z 08006MPS 050V110 CAVOK 01/M05 Q1020 R16/090060 NOSIG

Hora: 15:31 (13:31 UTC)

Previsão

O boletim foi feito há 26 horas e 26 minutos, às 11:05 UTC
Previsão válida de 20 às 12 UTC a 21 às 12 UTC
Vento 12 kt de es-nordeste com rajadas de 25 kt
Visibilidade: 6000 m
Nuvens dispersasa uma altura de 700 ft
Nuvens dispersasa uma altura de 1700 ft, Cumulonimbus.

TAF: UKOO 201105Z 2012/2112 07006G13MPS 6000 SCT007 SCT017CB TX03/2111Z TNM02/2104Z

Observações e previsões do tempo de mais de 4000 aeroportos (mensagens METAR e TAF).

As estações disponíveis são os pontos amarelos e vermelhos sobre o mapa.

Mova o rato sobre o mapa para ver o nome da estação.

Depois clique no ponto para visualizar as observações e previsões meteorológicas.

Para alterar o mapa : clique nos botões verdes com uma cruz preta para aumentar o zoom; no botão verde com uma pitada de zoom; ou nas setas verdes para mapas adjacentes.


METAR-TAF: